Managua, Nicaragua

10:17 PM CST on July 29, 2016 (GMT -0600)
Augusto Cesar Sandino | | Change Station

Elev 184 ft 12.14 °N, 86.17 °W | Updated 17 minutes ago

Scattered Clouds
Scattered Clouds
77 °F
Feels Like 77 °F
N
5
Wind Variable Wind from East

Today
High -- | Low -- °F
--% Chance of Precip.
Yesterday
High -- | Low -- °F
Precip. -- in
Pressure 29.92 in
Visibility 6.2 miles
Clouds Few 2200 ft
Scattered Clouds 7000 ft
Dew Point 72 °F
Humidity 83%
Rainfall 0.00 in
Snow Depth Not available.
5:30 AM 6:11 PM
Waning Crescent, 16% visible
METAR MNMG 300400Z 10004KT 9999 FEW022 SCT070 25/22 Q1013 A2992 84/
Pressure 29.92 in
Visibility 6.2 miles
Clouds Few 2200 ft
Scattered Clouds 7000 ft
Dew Point 72 °F
Humidity 83%
Rainfall 0.00 in
Snow Depth Not available.
5:30 AM 6:11 PM
Waning Crescent, 16% visible
METAR MNMG 300400Z 10004KT 9999 FEW022 SCT070 25/22 Q1013 A2992 84/

10-Day Weather Forecast

No radar image for this location.
×

Almanac

Astronomy

Jul. 29, 2016 Rise Set
Actual Time
Civil Twilight
Nautical Twilight
Astronomical Twilight
Moon
Length of Visible Light
Length of Day
Tomorrow will be .
, % of the Moon is Illuminated

Today's Extremes

Country Highs Country Lows

Community

WunderPhotos

Upload Photos

1,928,505 photos uploaded!

WunderBlog® & News

Nearby

Air Quality

  Air Quality AQ Index Pollutant
Not available.

Snow Depth

Station Depth Elevation

Earthquake Activity

City Distance Mag. Time & Date
Minimum magnitude displayed is 2.5.

Coastal Water Temperatures

Place Temperature

Stations

Nearby Weather Stations

Station Location Temp. Windchill Dew Point Humidity Wind Precip. Elev Updated Type